Time;durP1;ratioP1;P1;durP2;ratioP2;P2;SDS_P1;SDS_P2;PMS_P1;PMS_P2;Temp;Humidity;BMP_temperature;BMP_pressure;BME280_temperature;BME280_humidity;BME280_pressure;Samples;Min_cycle;Max_cycle;Signal;HPM_P1;HPM_P2
2022/12/25 00:02:12;;;;;;;9.90;4.50;;;11.40;99.90;;;;;;5074851;28;20196;-88
2022/12/25 00:04:41;;;;;;;14.43;5.30;;;11.50;99.90;;;;;;5074989;28;20269;-88
2022/12/25 00:07:16;;;;;;;12.17;5.57;;;11.50;99.90;;;;;;5096953;28;20202;-87
2022/12/25 00:09:48;;;;;;;11.00;4.57;;;11.50;99.90;;;;;;5114684;28;20708;-88
2022/12/25 00:12:43;;;;;;;7.57;4.40;;;11.70;99.90;;;;;;5081264;28;20180;-88
2022/12/25 00:18:31;;;;;;;7.00;4.10;;;11.50;99.90;;;;;;5086406;28;20305;-88
2022/12/25 00:21:19;;;;;;;11.77;4.70;;;11.40;99.90;;;;;;5080128;28;20656;-89
2022/12/25 00:24:18;;;;;;;8.73;4.67;;;11.50;99.90;;;;;;5101787;28;20252;-85
2022/12/25 00:26:44;;;;;;;10.13;4.80;;;11.50;99.90;;;;;;5106412;28;20190;-88
2022/12/25 00:29:18;;;;;;;8.37;3.93;;;11.70;99.90;;;;;;5080691;28;20739;-88
2022/12/25 00:32:00;;;;;;;9.20;3.93;;;11.40;99.90;;;;;;5080839;28;20180;-88
2022/12/25 00:34:52;;;;;;;10.23;4.73;;;11.50;99.90;;;;;;5095307;28;20159;-88
2022/12/25 00:37:27;;;;;;;12.30;4.37;;;11.50;99.90;;;;;;5086842;28;20196;-88
2022/12/25 00:43:15;;;;;;;10.60;4.60;;;11.50;99.90;;;;;;5014959;28;20193;-88
2022/12/25 00:46:16;;;;;;;9.10;3.47;;;11.50;99.90;;;;;;4998558;28;20174;-88
2022/12/25 00:48:53;;;;;;;9.27;4.13;;;11.50;99.90;;;;;;5064650;28;20584;-87
2022/12/25 00:51:27;;;;;;;9.13;3.93;;;11.40;99.90;;;;;;5078711;28;20256;-87
2022/12/25 00:54:12;;;;;;;8.73;3.50;;;11.50;99.90;;;;;;5079713;28;20203;-88
2022/12/25 00:57:04;;;;;;;6.40;3.17;;;11.50;99.90;;;;;;5081558;28;20181;-88
2022/12/25 00:59:46;;;;;;;7.07;4.47;;;11.50;99.90;;;;;;5075403;28;20670;-87
2022/12/25 01:02:27;;;;;;;9.00;3.80;;;11.40;99.90;;;;;;5098760;28;20210;-88
2022/12/25 01:05:09;;;;;;;10.47;3.47;;;11.40;99.90;;;;;;5099725;28;20209;-88
2022/12/25 01:07:47;;;;;;;6.67;3.30;;;11.40;99.90;;;;;;5080425;28;20179;-87
2022/12/25 01:10:23;;;;;;;8.63;3.10;;;11.40;99.90;;;;;;5078660;28;20186;-88
2022/12/25 01:13:07;;;;;;;7.03;2.70;;;11.40;99.90;;;;;;5077521;28;20183;-88
2022/12/25 01:16:27;;;;;;;6.37;2.50;;;11.40;99.90;;;;;;5075877;28;20188;-87
2022/12/25 01:18:56;;;;;;;5.63;2.43;;;11.50;99.90;;;;;;5077322;28;20699;-88
2022/12/25 01:21:44;;;;;;;7.10;2.57;;;11.60;99.90;;;;;;5078094;28;20168;-88
2022/12/25 01:24:19;;;;;;;6.07;2.50;;;11.60;99.90;;;;;;5095891;28;20255;-88
2022/12/25 01:27:04;;;;;;;4.40;2.30;;;11.50;99.90;;;;;;5077086;28;20189;-87
2022/12/25 01:30:15;;;;;;;5.37;2.20;;;11.50;99.90;;;;;;5076765;28;20185;-88
2022/12/25 01:33:19;;;;;;;7.77;2.33;;;11.50;99.90;;;;;;5077157;28;20180;-88
2022/12/25 01:39:23;;;;;;;5.23;2.00;;;11.50;99.90;;;;;;5013300;28;20180;-86
2022/12/25 01:42:31;;;;;;;4.07;1.60;;;11.60;99.90;;;;;;5071252;28;20184;-88
2022/12/25 01:45:00;;;;;;;4.57;1.90;;;11.50;99.90;;;;;;5088330;28;20178;-87
2022/12/25 01:51:57;;;;;;;6.40;2.13;;;11.60;99.90;;;;;;5096402;28;20203;-88
2022/12/25 01:54:55;;;;;;;5.77;2.00;;;11.60;99.90;;;;;;5055316;28;20178;-87
2022/12/25 02:42:22;;;;;;;5.13;1.97;;;11.50;99.90;;;;;;5045334;28;20229;-87
2022/12/25 03:08:52;;;;;;;6.97;1.90;;;11.70;99.90;;;;;;5100577;28;20182;-88
2022/12/25 03:18:16;;;;;;;6.63;2.03;;;11.60;99.90;;;;;;5097904;28;20710;-88
2022/12/25 03:27:24;;;;;;;5.10;1.97;;;11.40;99.90;;;;;;5101035;28;20622;-86
2022/12/25 04:36:13;;;;;;;5.63;3.37;;;11.30;99.90;;;;;;5096149;28;20194;-88
2022/12/25 04:39:13;;;;;;;6.77;3.67;;;11.30;99.90;;;;;;5077899;28;20223;-88
2022/12/25 04:45:50;;;;;;;8.10;4.60;;;11.30;99.90;;;;;;5081818;28;20206;-89
2022/12/25 04:48:40;;;;;;;8.03;4.27;;;11.30;99.90;;;;;;5042439;28;20443;-89
2022/12/25 04:52:04;;;;;;;6.77;4.40;;;11.20;99.90;;;;;;5077270;28;20200;-88
2022/12/25 04:55:02;;;;;;;9.63;5.20;;;11.20;99.90;;;;;;4998155;28;20187;-87
2022/12/25 04:58:10;;;;;;;8.93;4.63;;;11.10;99.90;;;;;;5014972;28;20219;-86
2022/12/25 05:05:07;;;;;;;6.80;4.77;;;11.20;99.90;;;;;;4994289;28;20183;-88
2022/12/25 05:11:32;;;;;;;9.07;5.20;;;11.20;99.90;;;;;;5018111;28;20177;-88
2022/12/25 05:14:53;;;;;;;8.93;5.37;;;11.20;99.90;;;;;;5095290;28;20213;-88
2022/12/25 05:17:32;;;;;;;9.90;5.47;;;11.30;99.90;;;;;;5010840;28;20235;-87
2022/12/25 05:20:38;;;;;;;7.83;5.33;;;11.30;99.90;;;;;;5069574;28;20190;-88
2022/12/25 05:24:14;;;;;;;7.87;5.60;;;11.40;99.90;;;;;;5078334;28;20186;-88
2022/12/25 05:29:36;;;;;;;9.17;5.10;;;11.30;99.90;;;;;;4993739;28;20177;-89
2022/12/25 05:49:55;;;;;;;7.50;4.20;;;11.50;99.90;;;;;;4881974;29;20172;-87
2022/12/25 05:52:31;;;;;;;8.23;4.13;;;11.40;99.90;;;;;;4911623;29;20197;-88
2022/12/25 05:56:08;;;;;;;;;;;;;;;;;;;;;
2022/12/25 06:08:58;;;;;;;7.50;3.53;;;11.70;99.90;;;;;;4975209;28;20201;-88
2022/12/25 06:15:12;;;;;;;7.67;4.53;;;11.80;99.90;;;;;;4975184;28;20246;-88
2022/12/25 06:18:14;;;;;;;8.03;4.40;;;11.80;99.90;;;;;;4978006;28;20211;-88
2022/12/25 06:24:39;;;;;;;9.43;5.40;;;12.00;99.90;;;;;;5095293;28;20586;-88
2022/12/25 06:34:15;;;;;;;5.73;3.57;;;12.00;99.90;;;;;;5098873;28;20197;-88
2022/12/25 06:46:50;;;;;;;5.07;3.97;;;12.10;99.90;;;;;;5036253;28;20562;-88
2022/12/25 07:13:50;;;;;;;4.77;2.70;;;12.00;99.90;;;;;;4981086;28;20187;-87
2022/12/25 07:16:53;;;;;;;4.97;2.87;;;12.00;99.90;;;;;;4981343;28;20222;-88
2022/12/25 07:27:09;;;;;;;;;;;;;;;;;;;;;
2022/12/25 07:33:26;;;;;;;6.07;2.87;;;11.50;99.90;;;;;;4935985;29;20195;-87
2022/12/25 07:39:27;;;;;;;5.03;3.00;;;11.30;99.90;;;;;;4927540;29;20244;-88
2022/12/25 07:45:17;;;;;;;7.43;3.27;;;11.40;99.90;;;;;;5009630;28;20189;-88
2022/12/25 07:47:50;;;;;;;4.03;2.83;;;11.40;99.90;;;;;;5071071;28;20550;-89
2022/12/25 07:50:22;;;;;;;3.90;3.03;;;11.40;99.90;;;;;;5097189;28;20200;-89
2022/12/25 07:52:54;;;;;;;5.20;3.10;;;11.40;99.90;;;;;;5077988;28;20180;-88
2022/12/25 07:55:23;;;;;;;5.60;3.30;;;11.30;99.90;;;;;;5074004;28;20187;-88
2022/12/25 07:57:58;;;;;;;4.23;3.20;;;11.30;99.90;;;;;;5097977;28;20215;-88
2022/12/25 08:00:31;;;;;;;4.90;3.17;;;11.30;99.90;;;;;;5080135;28;20190;-89
2022/12/25 08:06:28;;;;;;;6.70;2.97;;;11.30;99.90;;;;;;5097718;28;20197;-88
2022/12/25 08:08:55;;;;;;;3.57;2.67;;;11.20;99.90;;;;;;4998587;28;20206;-91
2022/12/25 08:11:21;;;;;;;6.27;3.13;;;11.30;99.90;;;;;;4979242;28;20197;-88
2022/12/25 08:13:48;;;;;;;5.07;3.23;;;11.40;99.90;;;;;;5027603;28;20514;-89
2022/12/25 08:16:14;;;;;;;4.27;3.17;;;11.40;99.90;;;;;;5077689;28;20193;-88
2022/12/25 08:18:47;;;;;;;5.17;3.40;;;11.50;99.90;;;;;;5078827;28;20224;-88
2022/12/25 08:21:20;;;;;;;5.57;4.00;;;11.50;99.90;;;;;;5087264;28;20196;-88
2022/12/25 08:23:46;;;;;;;5.40;3.77;;;11.70;99.90;;;;;;5109397;28;20165;-89
2022/12/25 08:26:24;;;;;;;7.20;3.93;;;11.70;99.90;;;;;;5093595;28;20176;-88
2022/12/25 08:29:04;;;;;;;;;;;;;;;;;;;;;
2022/12/25 08:31:36;;;;;;;5.70;3.67;;;11.80;99.90;;;;;;5101026;28;20697;-87
2022/12/25 08:34:03;;;;;;;4.83;3.60;;;11.90;99.90;;;;;;5083245;28;20186;-87
2022/12/25 08:36:35;;;;;;;4.53;3.73;;;12.10;99.90;;;;;;5114485;28;20174;-87
2022/12/25 08:39:01;;;;;;;5.70;3.30;;;12.10;99.90;;;;;;5096162;28;20248;-87
2022/12/25 08:41:36;;;;;;;5.37;4.10;;;12.30;99.90;;;;;;5089126;28;20213;-87
2022/12/25 08:44:16;;;;;;;4.87;3.90;;;12.40;99.90;;;;;;5106729;28;20181;-88
2022/12/25 08:46:48;;;;;;;7.00;4.30;;;12.40;99.90;;;;;;5081228;28;20171;-88
2022/12/25 08:49:33;;;;;;;7.17;4.17;;;12.50;99.90;;;;;;5083913;28;20239;-87
2022/12/25 08:52:02;;;;;;;4.57;3.50;;;12.50;99.90;;;;;;5079361;28;20189;-87
2022/12/25 08:54:35;;;;;;;5.70;4.07;;;12.50;99.90;;;;;;5080117;28;20188;-87
2022/12/25 08:57:03;;;;;;;5.37;3.90;;;12.50;99.90;;;;;;5077674;28;20243;-87
2022/12/25 08:59:30;;;;;;;5.20;4.37;;;12.50;99.90;;;;;;5079289;28;20186;-87
2022/12/25 09:01:55;;;;;;;7.60;4.10;;;12.50;99.90;;;;;;5078543;28;20205;-87
2022/12/25 09:04:27;;;;;;;9.87;5.80;;;12.60;99.90;;;;;;5084434;28;20191;-87
2022/12/25 09:06:55;;;;;;;8.23;4.57;;;12.50;99.90;;;;;;5100665;28;20172;-88
2022/12/25 09:09:29;;;;;;;6.93;4.50;;;12.40;99.90;;;;;;5078094;28;20662;-87
2022/12/25 09:11:57;;;;;;;6.23;4.73;;;12.30;99.90;;;;;;5094769;28;20190;-88
2022/12/25 09:14:23;;;;;;;6.83;4.57;;;12.40;99.90;;;;;;5093771;28;20194;-87
2022/12/25 09:16:55;;;;;;;6.97;5.17;;;12.40;99.90;;;;;;5087069;28;20203;-88
2022/12/25 09:19:30;;;;;;;7.63;5.03;;;12.50;99.90;;;;;;5080364;28;20224;-87
2022/12/25 09:22:02;;;;;;;8.73;5.23;;;12.60;99.90;;;;;;5097777;28;20181;-88
2022/12/25 09:24:46;;;;;;;7.10;4.63;;;12.60;99.90;;;;;;5081099;28;20187;-88
2022/12/25 09:27:21;;;;;;;7.30;4.53;;;12.60;99.90;;;;;;5103344;28;20218;-88
2022/12/25 09:29:50;;;;;;;7.23;5.30;;;12.70;99.90;;;;;;5093367;28;20712;-88
2022/12/25 09:32:43;;;;;;;6.23;4.67;;;12.70;99.90;;;;;;5094699;28;20185;-88
2022/12/25 09:35:54;;;;;;;6.00;4.97;;;12.70;99.90;;;;;;5080580;28;20214;-88
2022/12/25 09:38:36;;;;;;;7.33;5.20;;;12.60;99.90;;;;;;5081245;28;20685;-88
2022/12/25 09:41:27;;;;;;;6.23;5.33;;;12.70;99.90;;;;;;5079432;28;20213;-88
2022/12/25 09:44:26;;;;;;;7.20;4.70;;;12.70;99.90;;;;;;5078471;28;20179;-89
2022/12/25 09:47:17;;;;;;;6.80;5.20;;;12.80;99.90;;;;;;5078241;28;20214;-87
2022/12/25 09:50:07;;;;;;;7.00;4.53;;;12.80;99.90;;;;;;5067358;28;20180;-87
2022/12/25 09:52:43;;;;;;;7.80;5.07;;;12.70;99.90;;;;;;5093765;28;20181;-88
2022/12/25 09:55:17;;;;;;;5.53;4.70;;;12.70;99.90;;;;;;5099474;28;20196;-87
2022/12/25 09:57:57;;;;;;;6.33;4.70;;;12.70;99.90;;;;;;5119237;28;20241;-87
2022/12/25 10:00:39;;;;;;;7.37;4.60;;;12.80;99.90;;;;;;5081519;28;20172;-88
2022/12/25 10:03:45;;;;;;;5.30;4.30;;;12.80;99.90;;;;;;5095043;28;20278;-88
2022/12/25 10:06:26;;;;;;;6.43;4.10;;;12.80;99.90;;;;;;5094389;28;20185;-89
2022/12/25 10:09:25;;;;;;;6.13;4.40;;;12.80;99.90;;;;;;5085691;28;20167;-89
2022/12/25 10:12:27;;;;;;;;;;;;;;;;;;;;;
2022/12/25 10:15:25;;;;;;;5.00;3.27;;;12.80;99.90;;;;;;5108344;28;20608;-88
2022/12/25 10:18:18;;;;;;;4.83;3.10;;;12.80;99.90;;;;;;5094423;28;20285;-88
2022/12/25 10:21:08;;;;;;;4.37;3.40;;;12.90;99.90;;;;;;5111224;28;20209;-88
2022/12/25 10:23:44;;;;;;;5.50;3.80;;;13.00;99.90;;;;;;5094728;28;20186;-89
2022/12/25 10:26:38;;;;;;;5.70;3.70;;;13.00;99.90;;;;;;5089480;28;20188;-88
2022/12/25 10:29:28;;;;;;;5.40;4.17;;;13.00;99.90;;;;;;5091085;28;20179;-88
2022/12/25 10:32:04;;;;;;;5.73;3.70;;;12.90;99.90;;;;;;5107217;28;20185;-88
2022/12/25 10:34:34;;;;;;;5.40;4.17;;;12.90;99.90;;;;;;5089086;28;20259;-89
2022/12/25 10:37:03;;;;;;;6.13;4.40;;;12.90;99.90;;;;;;5094029;28;20182;-88
2022/12/25 10:39:47;;;;;;;5.17;3.80;;;12.90;99.90;;;;;;5091898;28;20611;-87
2022/12/25 10:42:44;;;;;;;5.97;4.40;;;12.60;99.90;;;;;;5096165;28;20181;-88
2022/12/25 10:45:13;;;;;;;4.97;3.87;;;12.50;99.90;;;;;;5097636;28;20189;-86
2022/12/25 10:47:46;;;;;;;4.93;3.87;;;12.60;99.90;;;;;;5098173;28;20250;-88
2022/12/25 10:50:21;;;;;;;4.70;3.67;;;12.60;99.90;;;;;;5098843;28;20210;-86
2022/12/25 10:53:55;;;;;;;;;;;;;;;;;;;;;
2022/12/25 10:56:18;;;;;;;4.60;3.80;;;12.30;99.90;;;;;;5105232;28;20193;-87
2022/12/25 10:59:09;;;;;;;5.23;4.00;;;12.30;99.90;;;;;;5093295;28;20217;-88
2022/12/25 11:01:51;;;;;;;4.60;3.40;;;12.40;99.90;;;;;;5083788;28;20187;-88
2022/12/25 11:04:42;;;;;;;4.40;3.60;;;12.50;99.90;;;;;;5104209;28;20187;-87
2022/12/25 11:07:49;;;;;;;5.67;4.13;;;12.40;99.90;;;;;;5075359;28;20592;-88
2022/12/25 11:10:37;;;;;;;5.83;4.40;;;12.30;99.90;;;;;;5111989;28;20178;-87
2022/12/25 11:13:30;;;;;;;5.37;4.37;;;12.50;99.90;;;;;;5111192;28;20181;-88
2022/12/25 11:16:31;;;;;;;7.27;4.77;;;12.40;99.90;;;;;;5089637;28;20259;-88
2022/12/25 11:18:59;;;;;;;5.40;4.80;;;12.50;99.90;;;;;;5086743;28;20240;-87
2022/12/25 11:21:31;;;;;;;5.53;4.67;;;12.40;99.90;;;;;;5090142;28;20174;-88
2022/12/25 11:24:04;;;;;;;7.10;5.40;;;12.30;99.90;;;;;;5091053;28;20176;-87
2022/12/25 11:26:50;;;;;;;8.17;5.93;;;12.30;99.90;;;;;;5073863;28;20243;-88
2022/12/25 11:29:40;;;;;;;7.20;6.50;;;12.00;99.90;;;;;;5092191;28;20192;-88
2022/12/25 11:32:33;;;;;;;8.70;7.20;;;11.90;99.90;;;;;;5093166;28;20182;-87
2022/12/25 11:35:01;;;;;;;8.80;7.20;;;12.00;99.90;;;;;;5067116;28;20186;-86
2022/12/25 11:37:42;;;;;;;9.40;8.30;;;12.00;99.90;;;;;;5097375;28;20215;-87
2022/12/25 11:40:28;;;;;;;9.63;8.67;;;12.20;99.90;;;;;;5096585;28;20191;-88
2022/12/25 11:43:18;;;;;;;9.63;8.17;;;12.20;99.90;;;;;;5093063;28;20188;-87
2022/12/25 11:46:01;;;;;;;9.53;8.43;;;12.30;99.90;;;;;;5091199;28;20672;-87
2022/12/25 11:48:41;;;;;;;13.37;8.73;;;12.20;99.90;;;;;;5090072;28;20184;-88
2022/12/25 11:51:11;;;;;;;8.60;7.70;;;12.20;99.90;;;;;;5090181;28;20208;-87
2022/12/25 11:54:26;;;;;;;8.93;7.43;;;12.30;99.90;;;;;;5092390;28;20197;-86
2022/12/25 11:56:56;;;;;;;8.77;7.03;;;12.30;99.90;;;;;;4998025;28;20208;-88
2022/12/25 11:59:36;;;;;;;8.83;7.93;;;12.30;99.90;;;;;;5086591;28;20221;-89
2022/12/25 12:02:42;;;;;;;8.27;7.03;;;12.30;99.90;;;;;;5088888;28;20195;-88
2022/12/25 12:05:21;;;;;;;8.90;7.80;;;12.20;99.90;;;;;;5067717;28;20192;-88
2022/12/25 12:08:01;;;;;;;11.30;8.27;;;12.30;99.90;;;;;;5090793;28;20176;-89
2022/12/25 12:10:32;;;;;;;9.17;7.77;;;12.30;99.90;;;;;;5113602;28;20210;-88
2022/12/25 12:13:33;;;;;;;;;;;;;;;;;;;;;
2022/12/25 12:16:37;;;;;;;8.50;7.53;;;12.30;99.90;;;;;;5117079;28;20296;-86
2022/12/25 12:19:46;;;;;;;9.83;8.23;;;12.40;99.90;;;;;;5109310;28;20229;-87
2022/12/25 12:22:27;;;;;;;10.43;8.47;;;12.50;99.90;;;;;;5108769;28;20213;-89
2022/12/25 12:25:05;;;;;;;9.20;7.60;;;12.60;99.90;;;;;;5101515;28;20704;-88
2022/12/25 12:27:37;;;;;;;9.67;7.93;;;12.60;99.90;;;;;;5088644;28;20183;-87
2022/12/25 12:30:41;;;;;;;;;;;;;;;;;;;;;
2022/12/25 12:33:31;;;;;;;8.07;7.20;;;12.60;99.90;;;;;;5071838;28;20629;-90
2022/12/25 12:36:09;;;;;;;8.20;7.20;;;12.50;99.90;;;;;;5089119;28;20181;-87
2022/12/25 12:38:39;;;;;;;6.80;6.10;;;12.50;99.90;;;;;;5110318;28;20306;-87
2022/12/25 12:41:17;;;;;;;7.20;6.13;;;12.40;99.90;;;;;;5089076;28;20266;-89
2022/12/25 12:44:12;;;;;;;;;;;;;;;;;;;;;
2022/12/25 12:46:56;;;;;;;5.60;4.33;;;12.60;99.90;;;;;;5108147;28;20191;-88
2022/12/25 12:49:35;;;;;;;4.87;3.53;;;12.00;99.90;;;;;;5101633;28;20187;-87
2022/12/25 12:52:26;;;;;;;4.60;4.10;;;12.20;99.90;;;;;;5080906;28;20189;-89
2022/12/25 12:55:36;;;;;;;6.30;4.03;;;12.30;99.90;;;;;;5026802;28;20288;-88
2022/12/25 12:58:47;;;;;;;4.70;4.00;;;12.20;99.90;;;;;;4940858;29;20261;-88
2022/12/25 13:01:47;;;;;;;5.80;4.30;;;12.00;99.90;;;;;;4940973;29;20260;-88
2022/12/25 13:04:16;;;;;;;5.00;4.33;;;12.40;99.90;;;;;;4940035;29;20180;-88
2022/12/25 13:07:30;;;;;;;5.00;4.50;;;12.30;99.90;;;;;;5001679;28;20247;-88
2022/12/25 13:10:39;;;;;;;9.53;5.40;;;12.60;99.90;;;;;;5029626;28;20201;-88
2022/12/25 13:13:46;;;;;;;6.93;5.40;;;12.60;99.90;;;;;;5024739;28;20637;-88
2022/12/25 13:17:09;;;;;;;6.87;5.13;;;12.70;99.90;;;;;;5018350;28;20191;-88
2022/12/25 13:19:42;;;;;;;6.13;5.10;;;12.60;99.90;;;;;;5009438;28;20251;-89
2022/12/25 13:22:33;;;;;;;6.83;5.17;;;12.50;99.90;;;;;;5045074;28;20178;-86
2022/12/25 13:25:07;;;;;;;6.07;4.90;;;12.40;99.90;;;;;;5028793;28;20201;-86
2022/12/25 13:27:36;;;;;;;6.33;5.20;;;12.50;99.90;;;;;;5092625;28;20595;-89
2022/12/25 13:30:18;;;;;;;10.83;8.57;;;12.50;99.90;;;;;;5092515;28;20174;-90
2022/12/25 13:32:44;;;;;;;9.67;7.03;;;12.60;99.90;;;;;;5093927;28;20194;-88
2022/12/25 13:35:24;;;;;;;9.37;7.30;;;12.60;99.90;;;;;;5080687;28;20183;-87
2022/12/25 13:37:52;;;;;;;8.80;7.90;;;12.70;99.90;;;;;;5073913;28;20218;-88
2022/12/25 13:40:28;;;;;;;10.23;7.43;;;12.70;99.90;;;;;;5091864;28;20173;-88
2022/12/25 13:43:03;;;;;;;10.33;8.30;;;12.80;99.90;;;;;;5086855;28;20186;-87
2022/12/25 13:45:33;;;;;;;9.03;7.60;;;12.80;99.90;;;;;;5082899;28;20182;-89
2022/12/25 13:48:19;;;;;;;9.30;8.30;;;12.70;99.90;;;;;;5086082;28;20183;-87
2022/12/25 13:50:57;;;;;;;9.17;8.07;;;12.70;99.90;;;;;;5095187;28;20289;-88
2022/12/25 13:53:26;;;;;;;10.07;7.73;;;12.70;99.90;;;;;;5091877;28;20188;-88
2022/12/25 13:56:03;;;;;;;14.47;10.50;;;12.70;99.90;;;;;;5087920;28;20186;-87
2022/12/25 13:58:45;;;;;;;13.40;9.93;;;12.70;99.90;;;;;;5107836;28;20222;-87
2022/12/25 14:01:18;;;;;;;14.03;9.33;;;12.70;99.90;;;;;;5089713;28;20233;-88
2022/12/25 14:04:29;;;;;;;10.53;9.00;;;12.70;99.90;;;;;;5086057;28;20214;-87
2022/12/25 14:07:17;;;;;;;10.40;8.60;;;12.60;99.90;;;;;;5080330;28;20278;-88
2022/12/25 14:09:52;;;;;;;10.07;8.67;;;12.70;99.90;;;;;;5087458;28;20176;-87
2022/12/25 14:12:25;;;;;;;10.33;8.10;;;12.60;99.90;;;;;;5094107;28;20191;-85
2022/12/25 14:14:52;;;;;;;10.97;8.60;;;12.60;99.90;;;;;;5097647;28;20186;-86
2022/12/25 14:17:19;;;;;;;13.13;8.77;;;12.60;99.90;;;;;;5093757;28;20568;-86
2022/12/25 14:20:27;;;;;;;10.87;9.13;;;12.50;99.90;;;;;;5089662;28;20282;-87
2022/12/25 14:23:14;;;;;;;11.80;9.30;;;12.70;99.90;;;;;;5084008;28;20182;-87
2022/12/25 14:25:46;;;;;;;9.23;8.30;;;12.90;99.90;;;;;;5083851;28;20370;-88
2022/12/25 14:28:30;;;;;;;11.07;9.73;;;12.90;99.90;;;;;;5084443;28;20210;-88
2022/12/25 14:30:57;;;;;;;10.70;8.70;;;12.70;99.90;;;;;;5094922;28;20171;-88
2022/12/25 14:33:26;;;;;;;12.77;9.97;;;12.60;99.90;;;;;;5100204;28;20171;-88
2022/12/25 14:35:54;;;;;;;11.33;9.30;;;12.60;99.90;;;;;;5097813;28;20252;-88
2022/12/25 14:38:27;;;;;;;11.83;10.63;;;12.50;99.90;;;;;;5097314;28;20215;-89
2022/12/25 14:41:32;;;;;;;10.97;9.13;;;12.60;99.90;;;;;;5077857;28;20202;-87
2022/12/25 14:44:40;;;;;;;12.00;9.67;;;12.60;99.90;;;;;;5113605;28;20195;-87
2022/12/25 14:47:20;;;;;;;13.53;10.73;;;12.70;99.90;;;;;;5082050;28;20194;-86
2022/12/25 14:49:47;;;;;;;15.90;11.43;;;12.90;99.90;;;;;;5082445;28;20187;-88
2022/12/25 14:52:20;;;;;;;13.17;11.80;;;12.90;99.90;;;;;;5097505;28;20182;-88
2022/12/25 14:55:06;;;;;;;15.70;12.40;;;13.00;99.90;;;;;;5092125;28;20183;-86
2022/12/25 14:57:49;;;;;;;16.00;12.83;;;12.90;99.90;;;;;;5085170;28;20207;-84
2022/12/25 15:00:34;;;;;;;13.77;12.30;;;12.90;99.90;;;;;;5101668;28;20177;-87
2022/12/25 15:03:15;;;;;;;18.07;14.00;;;12.90;99.90;;;;;;5096358;28;20217;-86
2022/12/25 15:06:29;;;;;;;15.87;12.43;;;12.80;99.90;;;;;;5112983;28;20618;-84
2022/12/25 15:09:03;;;;;;;14.33;12.83;;;12.90;99.90;;;;;;5093086;28;20174;-86
2022/12/25 15:11:32;;;;;;;15.30;12.67;;;12.90;99.90;;;;;;5108967;28;20163;-87
2022/12/25 15:14:03;;;;;;;14.37;12.87;;;12.80;99.90;;;;;;5076454;28;20210;-88
2022/12/25 15:16:40;;;;;;;17.10;14.37;;;12.70;99.90;;;;;;5073553;28;20183;-86
2022/12/25 15:19:34;;;;;;;15.93;14.33;;;12.80;99.90;;;;;;5104759;28;20226;-87
2022/12/25 15:22:04;;;;;;;16.53;14.33;;;12.80;99.90;;;;;;5098600;28;20184;-87
2022/12/25 15:24:42;;;;;;;14.87;13.20;;;12.70;99.90;;;;;;5095233;28;20251;-87
2022/12/25 15:27:17;;;;;;;15.57;12.90;;;12.70;99.90;;;;;;5091632;28;20186;-86
2022/12/25 15:29:44;;;;;;;16.87;14.20;;;12.80;99.90;;;;;;5085961;28;20171;-87
2022/12/25 15:32:21;;;;;;;16.63;13.77;;;12.80;99.90;;;;;;5095447;28;20226;-86
2022/12/25 15:34:52;;;;;;;14.70;12.40;;;12.80;99.90;;;;;;5093388;28;20562;-86
2022/12/25 15:37:20;;;;;;;15.73;13.13;;;12.70;99.90;;;;;;5102964;28;20195;-87
2022/12/25 15:39:47;;;;;;;15.17;11.87;;;12.80;99.90;;;;;;5094205;28;20181;-86
2022/12/25 15:42:18;;;;;;;14.50;13.00;;;12.70;99.90;;;;;;5092471;28;20184;-87
2022/12/25 15:44:45;;;;;;;14.90;11.97;;;12.70;99.90;;;;;;5070188;28;20186;-86
2022/12/25 15:47:18;;;;;;;13.33;11.37;;;12.70;99.90;;;;;;5092251;28;20172;-88
2022/12/25 15:49:45;;;;;;;13.17;11.20;;;12.80;99.90;;;;;;5092156;28;20211;-86
2022/12/25 15:52:15;;;;;;;13.43;11.30;;;12.70;99.90;;;;;;5090897;28;20192;-85
2022/12/25 15:54:47;;;;;;;15.60;12.20;;;12.60;99.90;;;;;;5093630;28;20183;-88
2022/12/25 15:57:21;;;;;;;13.43;11.63;;;12.60;99.90;;;;;;5090417;28;20183;-88
2022/12/25 15:59:48;;;;;;;15.20;11.93;;;12.60;99.90;;;;;;5091091;28;20179;-86
2022/12/25 16:02:18;;;;;;;14.07;12.57;;;12.60;99.90;;;;;;5075131;28;20236;-87
2022/12/25 16:04:46;;;;;;;16.47;12.13;;;12.60;99.90;;;;;;5092357;28;20269;-88
2022/12/25 16:07:21;;;;;;;14.50;12.70;;;12.60;99.90;;;;;;5093454;28;20179;-87
2022/12/25 16:09:49;;;;;;;13.53;12.10;;;12.70;99.90;;;;;;5091321;28;20636;-85
2022/12/25 16:12:16;;;;;;;13.93;12.20;;;12.70;99.90;;;;;;5086897;28;20242;-85
2022/12/25 16:14:42;;;;;;;14.47;12.33;;;12.70;99.90;;;;;;5088240;28;20189;-86
2022/12/25 16:17:19;;;;;;;14.37;11.57;;;12.50;99.90;;;;;;5072176;28;20202;-86
2022/12/25 16:19:48;;;;;;;15.20;12.67;;;12.70;99.90;;;;;;5090428;28;20210;-87
2022/12/25 16:22:21;;;;;;;13.00;11.23;;;12.60;99.90;;;;;;5105656;28;20183;-86
2022/12/25 16:24:49;;;;;;;14.37;12.40;;;12.60;99.90;;;;;;5092418;28;20178;-88
2022/12/25 16:27:42;;;;;;;15.13;11.60;;;12.60;99.90;;;;;;5075918;28;20179;-87
2022/12/25 16:30:26;;;;;;;13.10;10.83;;;12.60;99.90;;;;;;5112072;28;20185;-86
2022/12/25 16:32:55;;;;;;;15.00;10.57;;;12.50;99.90;;;;;;5092330;28;20204;-85
2022/12/25 16:35:25;;;;;;;13.73;10.40;;;12.60;99.90;;;;;;5095203;28;20191;-86
2022/12/25 16:37:54;;;;;;;13.10;9.97;;;12.50;99.90;;;;;;5090110;28;20682;-87
2022/12/25 16:40:21;;;;;;;11.13;9.23;;;12.40;99.90;;;;;;5103344;28;20183;-89
2022/12/25 16:42:47;;;;;;;14.50;10.03;;;12.50;99.90;;;;;;5105163;28;20187;-85
2022/12/25 16:45:14;;;;;;;12.03;9.13;;;12.50;99.90;;;;;;5088398;28;20237;-86
2022/12/25 16:47:51;;;;;;;13.13;9.87;;;12.30;99.90;;;;;;5107560;28;20209;-87
2022/12/25 16:50:17;;;;;;;14.00;9.73;;;12.40;99.90;;;;;;5097540;28;20202;-87
2022/12/25 16:52:49;;;;;;;12.67;10.10;;;12.50;99.90;;;;;;5117802;28;20175;-87
2022/12/25 16:55:26;;;;;;;15.30;10.10;;;12.50;99.90;;;;;;5116517;28;20174;-86
2022/12/25 16:57:55;;;;;;;12.07;9.67;;;12.50;99.90;;;;;;5090430;28;20208;-86
2022/12/25 17:00:32;;;;;;;12.50;9.50;;;12.40;99.90;;;;;;5087629;28;20188;-86
2022/12/25 17:02:59;;;;;;;10.30;8.50;;;12.50;99.90;;;;;;5072864;28;20194;-86
2022/12/25 17:05:28;;;;;;;13.83;8.90;;;12.30;99.90;;;;;;5107624;28;20198;-87
2022/12/25 17:08:16;;;;;;;10.60;8.27;;;12.40;99.90;;;;;;5087376;28;20186;-88
2022/12/25 17:10:49;;;;;;;14.53;8.50;;;12.20;99.90;;;;;;5094327;28;20212;-86
2022/12/25 17:13:23;;;;;;;12.50;8.33;;;12.20;99.90;;;;;;5113200;28;20169;-87
2022/12/25 17:15:53;;;;;;;12.90;8.93;;;12.00;99.90;;;;;;5078904;28;20180;-87
2022/12/25 17:18:22;;;;;;;13.87;9.40;;;12.20;99.90;;;;;;5103844;28;20210;-87
2022/12/25 17:20:53;;;;;;;11.93;8.80;;;12.10;99.90;;;;;;5084046;28;20223;-87
2022/12/25 17:23:23;;;;;;;12.10;8.50;;;12.20;99.90;;;;;;5106211;28;20268;-86
2022/12/25 17:25:51;;;;;;;13.10;8.93;;;12.20;99.90;;;;;;5085094;28;20184;-86
2022/12/25 17:28:21;;;;;;;11.00;9.10;;;12.40;99.90;;;;;;5084524;28;20171;-87
2022/12/25 17:30:47;;;;;;;12.20;8.40;;;12.30;99.90;;;;;;5083845;28;20227;-86
2022/12/25 17:33:13;;;;;;;12.33;7.80;;;12.30;99.90;;;;;;5093569;28;20193;-89
2022/12/25 17:35:38;;;;;;;10.23;7.73;;;12.30;99.90;;;;;;5088375;28;20233;-87
2022/12/25 17:38:04;;;;;;;10.83;7.43;;;12.30;99.90;;;;;;5094791;28;20211;-86
2022/12/25 17:40:31;;;;;;;10.30;6.57;;;12.10;99.90;;;;;;5104850;28;20165;-87
2022/12/25 17:43:00;;;;;;;13.53;7.97;;;12.20;99.90;;;;;;5090050;28;20186;-83
2022/12/25 17:45:26;;;;;;;11.70;7.60;;;12.20;99.90;;;;;;5089780;28;20193;-84
2022/12/25 17:47:56;;;;;;;13.83;7.47;;;12.20;99.90;;;;;;5071732;28;20180;-84
2022/12/25 17:50:29;;;;;;;11.43;8.00;;;12.20;99.90;;;;;;5090313;28;20213;-83
2022/12/25 17:53:01;;;;;;;11.97;7.87;;;12.30;99.90;;;;;;5102342;28;20172;-84
2022/12/25 17:55:35;;;;;;;9.93;7.43;;;12.30;99.90;;;;;;5084779;28;20653;-84
2022/12/25 17:58:01;;;;;;;10.80;8.10;;;12.30;99.90;;;;;;5086156;28;20231;-83
2022/12/25 18:00:28;;;;;;;9.00;7.73;;;12.40;99.90;;;;;;5082106;28;20240;-87
2022/12/25 18:02:54;;;;;;;12.47;7.50;;;12.50;99.90;;;;;;5088998;28;20190;-84
2022/12/25 18:05:21;;;;;;;11.27;7.60;;;12.60;99.90;;;;;;5086797;28;20186;-82
2022/12/25 18:07:57;;;;;;;11.67;7.47;;;12.70;99.90;;;;;;5099483;28;20200;-85
2022/12/25 18:10:22;;;;;;;12.70;7.93;;;12.50;99.90;;;;;;5096442;28;20170;-85
2022/12/25 18:12:49;;;;;;;9.67;7.00;;;12.50;99.90;;;;;;5100425;28;20181;-83
2022/12/25 18:15:14;;;;;;;9.03;7.23;;;12.50;99.90;;;;;;5100798;28;20241;-84
2022/12/25 18:17:40;;;;;;;11.07;8.07;;;12.60;99.90;;;;;;5095676;28;20230;-84
2022/12/25 18:20:25;;;;;;;10.27;7.23;;;12.60;99.90;;;;;;5108359;28;20239;-84
2022/12/25 18:22:50;;;;;;;11.80;7.10;;;12.60;99.90;;;;;;5089883;28;20171;-84
2022/12/25 18:25:23;;;;;;;11.87;7.83;;;12.70;99.90;;;;;;5092142;28;20191;-85
2022/12/25 18:27:55;;;;;;;13.10;7.97;;;12.60;99.90;;;;;;5100505;28;20194;-84
2022/12/25 18:30:22;;;;;;;11.53;7.97;;;12.70;99.90;;;;;;5078092;28;20213;-85
2022/12/25 18:32:57;;;;;;;11.70;7.93;;;12.70;99.90;;;;;;5083862;28;20195;-84